Time;durP1;ratioP1;P1;durP2;ratioP2;P2;SDS_P1;SDS_P2;PMS_P1;PMS_P2;Temp;Humidity;BMP_temperature;BMP_pressure;BME280_temperature;BME280_humidity;BME280_pressure;Samples;Min_cycle;Max_cycle;Signal;HPM_P1;HPM_P2
2023/07/31 00:00:06;;;;;;;5.70;2.60;;;;;;;15.09;100.00;100206.77;105410;1259;74812;-66
2023/07/31 00:02:33;;;;;;;3.90;2.30;;;;;;;15.03;100.00;100206.95;105417;1259;83088;-66
2023/07/31 00:05:01;;;;;;;4.20;2.20;;;;;;;15.01;100.00;100208.61;105483;1259;73436;-66
2023/07/31 00:07:28;;;;;;;4.90;2.10;;;;;;;14.99;100.00;100206.44;105483;1258;69063;-66
2023/07/31 00:09:56;;;;;;;3.20;2.20;;;;;;;14.98;100.00;100210.77;105409;1258;69275;-66
2023/07/31 00:12:23;;;;;;;4.70;2.50;;;;;;;14.95;100.00;100212.50;105433;1260;74297;-66
2023/07/31 00:14:50;;;;;;;6.90;2.20;;;;;;;14.94;100.00;100216.04;105475;1263;82190;-66
2023/07/31 00:17:18;;;;;;;5.80;2.20;;;;;;;14.92;100.00;100215.10;105511;1259;74180;-66
2023/07/31 00:19:46;;;;;;;4.30;2.40;;;;;;;14.90;100.00;100211.70;105431;1259;69068;-66
2023/07/31 00:22:13;;;;;;;4.80;2.20;;;;;;;14.91;100.00;100203.77;105399;1259;69169;-66
2023/07/31 00:24:39;;;;;;;4.80;1.90;;;;;;;14.89;100.00;100202.61;105435;1258;73925;-66
2023/07/31 00:27:06;;;;;;;4.60;2.40;;;;;;;14.88;100.00;100210.23;105383;1259;83385;-66
2023/07/31 00:29:33;;;;;;;5.90;2.90;;;;;;;14.88;100.00;100210.27;105109;1258;71700;-65
2023/07/31 00:32:00;;;;;;;5.60;2.40;;;;;;;14.89;100.00;100213.36;105104;1260;69177;-66
2023/07/31 00:34:27;;;;;;;4.40;2.40;;;;;;;14.92;100.00;100213.03;105509;1258;69191;-65
2023/07/31 00:36:54;;;;;;;2.20;2.00;;;;;;;14.93;100.00;100215.44;105125;1260;74722;-66
2023/07/31 00:39:21;;;;;;;6.10;2.50;;;;;;;14.90;100.00;100211.39;105515;1264;82308;-66
2023/07/31 00:41:48;;;;;;;4.90;2.20;;;;;;;14.87;100.00;100209.05;105408;1258;72536;-67
2023/07/31 00:44:17;;;;;;;3.80;2.60;;;;;;;14.82;100.00;100214.97;105492;1255;69089;-66
2023/07/31 00:46:44;;;;;;;5.00;2.80;;;;;;;14.79;100.00;100211.64;105479;1259;69177;-66
2023/07/31 00:49:12;;;;;;;4.20;2.60;;;;;;;14.77;100.00;100210.21;105445;1259;75024;-66
2023/07/31 00:51:39;;;;;;;4.40;2.50;;;;;;;14.75;100.00;100210.89;105431;1254;83293;-66
2023/07/31 00:54:06;;;;;;;4.90;2.60;;;;;;;14.72;100.00;100210.12;105408;1263;73567;-66
2023/07/31 00:56:33;;;;;;;5.50;2.30;;;;;;;14.70;100.00;100209.87;105442;1259;69171;-66
2023/07/31 00:59:00;;;;;;;5.90;2.50;;;;;;;14.68;100.00;100208.61;105436;1257;69191;-66
2023/07/31 01:01:28;;;;;;;4.60;2.40;;;;;;;14.65;100.00;100212.63;105506;1266;75051;-65
2023/07/31 01:03:55;;;;;;;6.20;2.10;;;;;;;14.62;100.00;100213.16;105329;1263;81242;-66
2023/07/31 01:06:40;;;;;;;5.60;2.50;;;;;;;14.60;100.00;100211.16;105170;1258;73597;-65
2023/07/31 01:09:14;;;;;;;5.50;2.80;;;;;;;14.59;100.00;100207.90;105407;1253;69115;-66
2023/07/31 01:11:50;;;;;;;4.00;2.40;;;;;;;14.58;100.00;100209.71;105484;1260;69190;-66
2023/07/31 01:14:17;;;;;;;3.70;2.30;;;;;;;14.58;100.00;100209.19;105466;1259;75053;-66
2023/07/31 01:16:44;;;;;;;4.40;2.20;;;;;;;14.58;100.00;100213.73;105214;1260;83277;-65
2023/07/31 01:19:14;;;;;;;6.50;2.20;;;;;;;14.57;100.00;100214.33;105439;1258;72658;-66
2023/07/31 01:21:53;;;;;;;3.80;1.90;;;;;;;14.57;100.00;100214.30;105449;1258;69066;-65
2023/07/31 01:24:23;;;;;;;5.80;2.30;;;;;;;14.57;100.00;100215.54;105410;1266;69162;-65
2023/07/31 01:26:58;;;;;;;5.60;2.50;;;;;;;14.57;100.00;100216.43;105466;1254;74464;-65
2023/07/31 01:30:00;;;;;;;3.80;2.60;;;;;;;14.56;100.00;100218.10;105491;1260;82434;-65
2023/07/31 01:32:28;;;;;;;7.20;2.90;;;;;;;14.54;100.00;100214.51;105478;1257;73684;-65
2023/07/31 01:34:57;;;;;;;7.30;2.50;;;;;;;14.53;100.00;100215.60;105452;1256;69267;-64
2023/07/31 01:37:29;;;;;;;6.40;2.30;;;;;;;14.53;100.00;100217.02;105217;1259;69167;-64
2023/07/31 01:39:56;;;;;;;5.40;2.50;;;;;;;14.50;100.00;100214.34;105267;1259;74936;-65
2023/07/31 01:42:23;;;;;;;6.40;2.70;;;;;;;14.50;100.00;100212.94;105414;1255;82471;-64
2023/07/31 01:44:50;;;;;;;5.00;2.30;;;;;;;14.49;100.00;100213.33;105494;1266;73598;-64
2023/07/31 01:47:17;;;;;;;6.80;2.50;;;;;;;14.48;100.00;100213.71;105374;1254;69076;-65
2023/07/31 01:49:44;;;;;;;5.90;2.50;;;;;;;14.47;100.00;100211.85;105270;1258;69145;-65
2023/07/31 01:52:11;;;;;;;4.30;2.30;;;;;;;14.47;100.00;100210.11;105188;1269;75215;-65
2023/07/31 01:54:38;;;;;;;4.50;2.30;;;;;;;14.44;100.00;100206.62;105368;1259;83236;-64
2023/07/31 01:57:05;;;;;;;3.80;2.40;;;;;;;14.44;100.00;100206.24;105475;1258;73589;-64
2023/07/31 01:59:34;;;;;;;5.40;2.30;;;;;;;14.43;100.00;100204.16;105453;1259;69523;-64
2023/07/31 02:02:00;;;;;;;3.90;2.10;;;;;;;14.43;100.00;100199.80;105191;1269;69302;-64
2023/07/31 02:04:28;;;;;;;6.00;2.30;;;;;;;14.42;100.00;100194.89;105519;1254;74802;-64
2023/07/31 02:06:55;;;;;;;4.80;2.40;;;;;;;14.41;100.00;100192.52;105273;1259;83281;-65
2023/07/31 02:09:21;;;;;;;3.30;2.20;;;;;;;14.41;100.00;100197.63;105445;1258;73678;-61
2023/07/31 02:11:48;;;;;;;4.20;2.20;;;;;;;14.41;100.00;100204.30;105289;1259;69221;-67
2023/07/31 02:14:15;;;;;;;8.90;3.10;;;;;;;14.42;100.00;100199.67;105412;1260;69166;-68
2023/07/31 02:16:43;;;;;;;9.40;2.70;;;;;;;14.42;100.00;100197.88;105387;1255;73704;-67
2023/07/31 02:19:10;;;;;;;5.30;2.50;;;;;;;14.44;100.00;100198.65;105130;1260;83635;-68
2023/07/31 02:21:37;;;;;;;5.20;2.50;;;;;;;14.44;100.00;100198.48;105451;1259;73628;-67
2023/07/31 02:24:05;;;;;;;5.30;2.50;;;;;;;14.45;100.00;100202.33;105389;1258;69164;-67
2023/07/31 02:26:32;;;;;;;5.20;2.50;;;;;;;14.45;100.00;100204.41;105405;1259;69148;-67
2023/07/31 02:28:59;;;;;;;5.40;2.50;;;;;;;14.44;100.00;100208.86;105384;1257;74819;-68
2023/07/31 02:31:26;;;;;;;5.60;2.70;;;;;;;14.39;100.00;100207.88;105415;1257;82262;-68
2023/07/31 02:33:53;;;;;;;4.20;2.30;;;;;;;14.34;100.00;100209.08;105286;1259;73871;-68
2023/07/31 02:36:21;;;;;;;4.10;2.50;;;;;;;14.28;100.00;100206.75;105417;1257;69176;-67
2023/07/31 02:38:48;;;;;;;5.90;2.90;;;;;;;14.26;100.00;100210.40;105514;1255;69121;-67
2023/07/31 02:41:15;;;;;;;9.90;2.50;;;;;;;14.16;100.00;100210.94;105391;1258;73928;-67
2023/07/31 02:43:42;;;;;;;4.30;2.50;;;;;;;14.05;100.00;100207.48;105325;1260;82950;-67
2023/07/31 02:46:09;;;;;;;7.30;2.40;;;;;;;13.99;100.00;100209.44;105399;1254;73536;-67
2023/07/31 02:48:36;;;;;;;5.00;2.90;;;;;;;13.92;100.00;100208.40;105444;1257;69151;-67
2023/07/31 02:51:03;;;;;;;3.80;2.40;;;;;;;13.86;100.00;100206.95;105503;1260;69072;-68
2023/07/31 02:53:30;;;;;;;8.40;2.70;;;;;;;13.81;100.00;100201.41;105414;1254;73754;-68
2023/07/31 02:55:57;;;;;;;7.90;3.10;;;;;;;13.80;100.00;100196.53;105550;1255;83621;-67
2023/07/31 02:58:24;;;;;;;6.00;2.80;;;;;;;13.79;100.00;100196.97;105397;1254;73844;-68
2023/07/31 03:00:51;;;;;;;6.70;2.80;;;;;;;13.81;100.00;100190.52;105425;1258;69151;-67
2023/07/31 03:03:18;;;;;;;7.20;2.80;;;;;;;13.86;100.00;100189.57;105403;1254;69199;-63
2023/07/31 03:05:45;;;;;;;8.50;3.00;;;;;;;13.90;100.00;100190.05;105413;1254;73780;-68
2023/07/31 03:08:12;;;;;;;7.10;2.80;;;;;;;13.92;100.00;100189.58;105405;1257;82450;-67
2023/07/31 03:10:39;;;;;;;5.60;2.70;;;;;;;13.96;100.00;100190.77;105440;1258;72690;-67
2023/07/31 03:13:05;;;;;;;6.30;2.70;;;;;;;14.01;100.00;100188.77;105390;1259;69095;-67
2023/07/31 03:15:33;;;;;;;5.90;2.40;;;;;;;14.05;100.00;100186.77;105401;1257;69136;-67
2023/07/31 03:18:00;;;;;;;6.00;2.80;;;;;;;14.06;100.00;100186.37;105409;1255;74736;-67
2023/07/31 03:20:27;;;;;;;5.50;2.60;;;;;;;14.08;100.00;100185.53;105518;1258;83401;-66
2023/07/31 03:22:54;;;;;;;8.40;3.20;;;;;;;14.12;100.00;100177.08;105386;1254;72664;-66
2023/07/31 03:25:21;;;;;;;7.50;2.80;;;;;;;14.18;100.00;100176.37;105420;1253;69086;-66
2023/07/31 03:27:48;;;;;;;4.40;2.70;;;;;;;14.23;100.00;100177.84;105448;1255;69180;-67
2023/07/31 03:30:15;;;;;;;6.90;3.30;;;;;;;14.26;100.00;100183.29;105517;1253;73834;-66
2023/07/31 03:32:42;;;;;;;5.40;2.70;;;;;;;14.28;100.00;100180.41;105390;1254;83344;-66
2023/07/31 03:35:09;;;;;;;5.00;2.90;;;;;;;14.25;100.00;100177.22;105361;1258;73712;-67
2023/07/31 03:37:36;;;;;;;4.60;2.50;;;;;;;14.22;100.00;100173.02;105389;1257;69209;-67
2023/07/31 03:40:04;;;;;;;5.10;2.50;;;;;;;14.20;100.00;100171.03;105414;1256;69184;-66
2023/07/31 03:42:31;;;;;;;6.80;2.60;;;;;;;14.15;100.00;100171.13;105460;1257;73809;-65
2023/07/31 03:44:58;;;;;;;5.60;3.30;;;;;;;14.14;100.00;100175.42;105464;1257;83332;-65
2023/07/31 03:47:26;;;;;;;4.80;2.70;;;;;;;14.13;100.00;100174.23;105398;1254;72696;-65
2023/07/31 03:49:53;;;;;;;4.30;2.50;;;;;;;14.11;100.00;100176.09;105403;1257;69261;-65
2023/07/31 03:52:20;;;;;;;4.40;2.60;;;;;;;14.09;100.00;100183.73;105393;1257;69222;-65
2023/07/31 03:54:47;;;;;;;6.50;2.60;;;;;;;14.11;100.00;100186.10;105416;1254;73642;-65
2023/07/31 03:57:13;;;;;;;6.90;2.90;;;;;;;14.11;100.00;100183.28;105472;1255;82308;-65
2023/07/31 03:59:40;;;;;;;5.30;2.50;;;;;;;14.15;100.00;100182.15;105379;1254;73717;-65
2023/07/31 04:02:07;;;;;;;7.40;2.80;;;;;;;14.19;100.00;100183.01;105397;1258;69239;-65
2023/07/31 04:04:34;;;;;;;5.50;3.00;;;;;;;14.22;100.00;100183.55;105438;1258;69211;-65
2023/07/31 04:07:03;;;;;;;5.00;2.60;;;;;;;14.27;100.00;100185.38;105360;1254;73925;-65
2023/07/31 04:09:30;;;;;;;4.80;2.70;;;;;;;14.28;100.00;100187.77;105481;1254;82379;-65
2023/07/31 04:11:56;;;;;;;5.10;2.50;;;;;;;14.28;100.00;100191.29;105416;1253;72648;-65
2023/07/31 04:14:24;;;;;;;6.10;3.40;;;;;;;14.31;100.00;100192.23;105387;1253;69177;-66
2023/07/31 04:16:50;;;;;;;4.70;2.60;;;;;;;14.32;100.00;100188.98;105411;1254;69170;-66
2023/07/31 04:19:17;;;;;;;5.10;2.50;;;;;;;14.32;100.00;100185.30;105406;1258;73865;-65
2023/07/31 04:21:44;;;;;;;7.10;2.90;;;;;;;14.33;100.00;100186.13;105408;1257;83942;-65
2023/07/31 04:24:11;;;;;;;5.20;2.60;;;;;;;14.35;100.00;100184.77;105401;1254;72620;-65
2023/07/31 04:26:38;;;;;;;4.40;2.90;;;;;;;14.38;100.00;100182.48;105519;1257;69214;-65
2023/07/31 04:29:06;;;;;;;5.10;2.70;;;;;;;14.39;100.00;100184.73;105419;1257;69168;-65
2023/07/31 04:31:33;;;;;;;7.00;2.90;;;;;;;14.39;100.00;100185.09;105420;1253;73947;-65
2023/07/31 04:34:04;;;;;;;4.30;2.30;;;;;;;14.37;100.00;100185.52;105498;1257;83409;-65
2023/07/31 04:36:30;;;;;;;5.40;2.90;;;;;;;14.38;100.00;100188.30;105349;1257;72540;-66
2023/07/31 04:38:57;;;;;;;9.30;2.60;;;;;;;14.40;100.00;100190.65;105360;1257;69080;-66
2023/07/31 04:41:24;;;;;;;4.10;2.60;;;;;;;14.40;100.00;100191.48;105395;1256;69177;-65
2023/07/31 04:43:51;;;;;;;7.30;3.20;;;;;;;14.41;100.00;100191.27;105349;1254;73871;-66
2023/07/31 04:46:18;;;;;;;6.60;2.60;;;;;;;14.43;100.00;100191.33;105367;1257;83252;-66
2023/07/31 04:48:45;;;;;;;6.80;2.40;;;;;;;14.46;100.00;100187.29;105497;1257;73367;-67
2023/07/31 04:51:12;;;;;;;7.10;2.70;;;;;;;14.50;100.00;100190.23;105434;1254;69202;-69
2023/07/31 04:53:39;;;;;;;8.60;2.80;;;;;;;14.55;100.00;100191.23;105409;1257;69106;-73
2023/07/31 04:56:06;;;;;;;6.20;2.80;;;;;;;14.60;100.00;100188.30;105424;1257;73832;-72
2023/07/31 04:58:33;;;;;;;4.30;2.60;;;;;;;14.66;100.00;100188.84;105363;1257;83544;-72
2023/07/31 05:01:00;;;;;;;5.60;2.80;;;;;;;14.71;100.00;100191.00;105377;1253;73627;-72
2023/07/31 05:03:27;;;;;;;5.60;3.30;;;;;;;14.76;100.00;100191.26;105406;1255;69221;-70
2023/07/31 05:05:54;;;;;;;7.60;2.60;;;;;;;14.82;100.00;100188.10;105330;1258;69120;-69
2023/07/31 05:08:21;;;;;;;6.10;2.50;;;;;;;14.86;100.00;100184.54;105387;1258;73848;-68
2023/07/31 05:10:48;;;;;;;7.10;3.00;;;;;;;14.87;100.00;100178.11;105367;1253;82428;-69
2023/07/31 05:13:15;;;;;;;4.80;2.50;;;;;;;14.91;100.00;100180.04;105405;1254;72564;-68
2023/07/31 05:15:42;;;;;;;6.70;2.70;;;;;;;14.95;100.00;100184.51;105357;1254;69231;-68
2023/07/31 05:18:09;;;;;;;4.90;2.30;;;;;;;15.03;100.00;100179.67;105435;1254;69104;-69
2023/07/31 05:20:36;;;;;;;6.90;2.60;;;;;;;15.09;100.00;100177.37;105373;1254;73766;-70
2023/07/31 05:23:03;;;;;;;5.50;2.50;;;;;;;15.16;100.00;100174.84;105399;1257;83486;-72
2023/07/31 05:25:30;;;;;;;4.00;2.30;;;;;;;15.23;100.00;100171.45;105407;1258;73459;-71
2023/07/31 05:27:57;;;;;;;5.70;2.20;;;;;;;15.30;100.00;100170.64;105403;1258;69082;-73
2023/07/31 05:30:24;;;;;;;6.40;2.30;;;;;;;15.37;100.00;100167.39;105497;1257;69114;-72
2023/07/31 05:32:51;;;;;;;6.20;2.20;;;;;;;15.43;100.00;100163.73;105412;1257;72697;-72
2023/07/31 05:35:18;;;;;;;6.30;1.90;;;;;;;15.51;100.00;100160.79;105401;1257;83711;-65
2023/07/31 05:37:45;;;;;;;6.30;2.00;;;;;;;15.57;100.00;100158.08;105587;1253;72592;-65
2023/07/31 05:40:12;;;;;;;9.30;2.40;;;;;;;15.64;100.00;100158.16;105525;1253;69090;-68
2023/07/31 05:42:39;;;;;;;9.00;2.20;;;;;;;15.71;100.00;100157.95;105525;1257;69064;-70
2023/07/31 05:45:07;;;;;;;5.50;2.60;;;;;;;15.77;100.00;100157.93;105542;1254;73724;-70
2023/07/31 05:47:34;;;;;;;5.20;2.00;;;;;;;15.85;100.00;100160.60;105597;1257;83449;-68
2023/07/31 05:50:01;;;;;;;4.90;1.80;;;;;;;15.93;100.00;100157.47;105685;1253;73635;-67
2023/07/31 05:52:28;;;;;;;7.40;1.90;;;;;;;16.00;100.00;100156.64;105667;1256;69118;-72
2023/07/31 05:54:56;;;;;;;3.70;1.90;;;;;;;16.07;100.00;100155.85;105579;1254;69116;-67
2023/07/31 05:57:23;;;;;;;7.00;1.70;;;;;;;16.15;100.00;100156.81;105686;1256;74615;-67
2023/07/31 05:59:50;;;;;;;4.40;1.90;;;;;;;16.20;100.00;100157.69;105587;1257;84417;-67
2023/07/31 06:02:16;;;;;;;6.40;2.20;;;;;;;16.27;100.00;100160.40;105549;1254;72684;-67
2023/07/31 06:04:43;;;;;;;6.20;2.00;;;;;;;16.35;100.00;100161.61;105726;1257;69215;-67
2023/07/31 06:07:10;;;;;;;7.90;1.70;;;;;;;16.42;100.00;100159.45;105531;1257;69166;-67
2023/07/31 06:09:37;;;;;;;5.70;2.30;;;;;;;16.51;100.00;100160.81;105572;1254;73819;-67
2023/07/31 06:12:05;;;;;;;5.50;1.80;;;;;;;16.58;99.98;100160.86;105778;1257;83337;-65
2023/07/31 06:14:32;;;;;;;5.10;1.90;;;;;;;16.64;99.56;100164.14;105681;1253;72556;-68
2023/07/31 06:16:58;;;;;;;5.50;2.10;;;;;;;16.69;99.44;100161.70;105596;1256;69091;-66
2023/07/31 06:19:25;;;;;;;5.10;1.80;;;;;;;16.74;99.00;100161.75;105600;1252;69171;-66
2023/07/31 06:21:52;;;;;;;4.00;1.80;;;;;;;16.76;98.56;100160.73;105655;1257;73716;-66
2023/07/31 06:24:20;;;;;;;8.10;2.10;;;;;;;16.77;98.02;100163.02;105489;1257;83525;-65
2023/07/31 06:26:47;;;;;;;5.30;1.70;;;;;;;16.81;98.11;100164.14;105499;1253;73746;-64
2023/07/31 06:29:14;;;;;;;6.30;1.70;;;;;;;16.87;98.01;100164.11;105417;1254;69236;-70
2023/07/31 06:31:41;;;;;;;4.00;1.80;;;;;;;16.94;98.02;100159.35;105362;1255;69124;-70
2023/07/31 06:34:08;;;;;;;5.80;1.90;;;;;;;17.06;97.75;100157.18;105362;1254;74890;-67
2023/07/31 06:36:35;;;;;;;7.10;1.70;;;;;;;17.14;97.54;100158.58;105453;1257;83053;-68
2023/07/31 06:39:03;;;;;;;10.60;2.00;;;;;;;17.20;97.19;100153.52;105639;1254;73717;-69
2023/07/31 06:41:30;;;;;;;5.90;1.90;;;;;;;17.27;96.84;100151.65;105521;1258;69084;-69
2023/07/31 06:43:57;;;;;;;7.10;2.00;;;;;;;17.38;96.75;100153.39;105453;1253;69179;-69
2023/07/31 06:46:24;;;;;;;3.50;1.40;;;;;;;17.48;96.20;100150.05;105589;1253;73608;-68
2023/07/31 06:48:51;;;;;;;5.60;1.70;;;;;;;17.57;95.93;100149.92;105471;1257;83303;-69
2023/07/31 06:51:18;;;;;;;8.10;2.00;;;;;;;17.67;95.50;100152.08;105484;1254;72962;-69
2023/07/31 06:53:45;;;;;;;4.10;1.50;;;;;;;17.76;94.92;100147.88;105534;1257;69042;-69
2023/07/31 06:56:12;;;;;;;3.30;1.40;;;;;;;17.86;94.43;100145.77;105628;1257;69331;-69
2023/07/31 06:58:39;;;;;;;7.10;1.80;;;;;;;17.96;93.87;100148.44;105382;1255;74764;-68
2023/07/31 07:01:06;;;;;;;4.30;1.50;;;;;;;18.06;93.34;100150.21;105511;1257;82462;-66
2023/07/31 07:03:33;;;;;;;4.30;1.50;;;;;;;18.14;92.79;100144.16;105516;1253;73715;-67
2023/07/31 07:06:00;;;;;;;4.30;1.60;;;;;;;18.23;92.63;100142.95;105380;1257;69140;-68
2023/07/31 07:08:28;;;;;;;7.70;1.50;;;;;;;18.35;92.08;100146.16;105612;1255;69171;-69
2023/07/31 07:10:55;;;;;;;3.30;1.30;;;;;;;18.46;91.47;100146.89;105552;1256;72793;-69
2023/07/31 07:13:22;;;;;;;3.50;1.30;;;;;;;18.53;90.47;100150.49;105678;1254;82746;-68
2023/07/31 07:15:49;;;;;;;6.10;1.40;;;;;;;18.59;89.94;100148.58;105358;1258;73787;-68
2023/07/31 07:18:17;;;;;;;7.10;1.80;;;;;;;18.65;89.19;100145.14;105614;1254;69112;-68
2023/07/31 07:20:50;;;;;;;2.80;1.10;;;;;;;18.71;88.56;100142.95;105627;1257;69236;-68
2023/07/31 07:23:17;;;;;;;3.40;1.30;;;;;;;18.78;87.83;100135.77;105673;1257;74706;-65
2023/07/31 07:25:45;;;;;;;4.40;1.30;;;;;;;18.85;87.40;100135.87;105578;1253;82513;-65
2023/07/31 07:28:12;;;;;;;5.30;1.30;;;;;;;18.91;86.59;100139.17;105456;1257;72642;-67
2023/07/31 07:30:40;;;;;;;4.50;1.30;;;;;;;18.90;84.89;100141.00;105788;1253;69142;-71
2023/07/31 07:33:07;;;;;;;4.10;1.00;;;;;;;18.86;83.93;100136.33;105488;1257;69128;-69
2023/07/31 07:35:35;;;;;;;3.20;1.10;;;;;;;18.82;83.22;100136.66;105334;1257;73979;-69
2023/07/31 07:38:02;;;;;;;3.90;1.50;;;;;;;18.83;83.53;100133.75;105520;1256;83339;-63
2023/07/31 07:40:29;;;;;;;3.80;1.10;;;;;;;18.87;83.07;100132.70;105550;1253;72617;-69
2023/07/31 07:42:56;;;;;;;4.60;1.20;;;;;;;18.87;82.63;100133.25;105587;1257;69191;-68
2023/07/31 07:45:23;;;;;;;2.10;1.20;;;;;;;18.87;82.59;100134.52;105608;1253;176846;-71
2023/07/31 07:47:50;;;;;;;4.30;1.20;;;;;;;18.87;82.28;100134.69;105373;1255;73981;-70
2023/07/31 07:50:18;;;;;;;4.80;1.20;;;;;;;18.82;81.73;100139.14;105493;1257;83465;-70
2023/07/31 07:52:45;;;;;;;3.30;1.20;;;;;;;18.75;80.99;100136.13;105620;1256;73650;-68
2023/07/31 07:55:12;;;;;;;3.70;1.00;;;;;;;18.70;81.10;100140.64;105412;1254;69218;-70
2023/07/31 07:57:39;;;;;;;4.00;1.10;;;;;;;18.70;81.14;100137.14;105536;1257;69205;-70
2023/07/31 08:00:07;;;;;;;2.70;1.30;;;;;;;18.69;80.73;100139.90;105768;1257;72431;-73
2023/07/31 08:02:40;;;;;;;1.90;1.00;;;;;;;18.71;80.87;100142.05;105462;1257;83948;-72
2023/07/31 08:05:08;;;;;;;3.30;1.00;;;;;;;18.76;81.06;100146.16;105499;1253;73669;-72
2023/07/31 08:07:35;;;;;;;2.30;1.20;;;;;;;18.78;80.75;100145.48;105656;1253;69083;-71
2023/07/31 08:10:02;;;;;;;5.10;1.60;;;;;;;18.78;80.60;100150.80;105438;1257;69193;-69
2023/07/31 08:12:29;;;;;;;6.10;1.40;;;;;;;18.72;80.33;100151.68;105497;1256;73795;-71
2023/07/31 08:14:57;;;;;;;4.90;1.60;;;;;;;18.68;80.44;100153.92;105516;1257;83295;-71
2023/07/31 08:17:24;;;;;;;8.60;1.40;;;;;;;18.65;80.46;100159.29;105686;1253;73843;-66
2023/07/31 08:19:50;;;;;;;9.80;2.60;;;;;;;18.57;80.12;100159.02;105538;1257;69113;-71
2023/07/31 08:22:18;;;;;;;18.40;3.30;;;;;;;18.47;79.95;100163.30;105595;1257;69287;-71
2023/07/31 08:24:44;;;;;;;7.80;1.70;;;;;;;18.35;79.81;100164.88;105584;1253;73751;-69
2023/07/31 08:27:12;;;;;;;3.90;1.30;;;;;;;18.24;80.08;100162.16;105541;1257;83572;-70
2023/07/31 08:29:39;;;;;;;2.70;1.10;;;;;;;18.16;80.51;100169.45;105665;1258;73001;-71
2023/07/31 08:32:06;;;;;;;3.80;1.10;;;;;;;18.08;80.63;100171.27;105616;1253;69061;-71
2023/07/31 08:34:33;;;;;;;4.20;1.30;;;;;;;17.99;80.85;100170.47;105532;1257;69283;-68
2023/07/31 08:37:00;;;;;;;5.20;1.70;;;;;;;17.93;80.95;100171.98;105630;1256;75306;-68
2023/07/31 08:39:27;;;;;;;4.70;1.50;;;;;;;17.89;81.35;100168.23;105688;1256;83219;-66
2023/07/31 08:41:59;;;;;;;4.20;1.30;;;;;;;17.85;81.43;100167.23;105544;1253;72339;-72
2023/07/31 08:44:27;;;;;;;3.70;1.20;;;;;;;17.80;81.41;100164.73;105691;1257;69062;-68
2023/07/31 08:46:54;;;;;;;8.70;1.60;;;;;;;17.75;81.54;100166.70;105763;1253;69170;-69
2023/07/31 08:49:22;;;;;;;2.50;1.30;;;;;;;17.73;81.76;100167.90;105678;1252;74546;-69
2023/07/31 08:51:50;;;;;;;3.10;1.30;;;;;;;17.71;82.06;100167.14;105400;1254;83360;-70
2023/07/31 08:54:17;;;;;;;4.90;1.30;;;;;;;17.71;82.09;100166.98;105551;1257;72612;-70
2023/07/31 08:56:44;;;;;;;3.90;1.20;;;;;;;17.73;82.31;100164.14;105314;1254;69214;-71
2023/07/31 08:59:12;;;;;;;5.00;1.60;;;;;;;17.76;82.48;100166.06;105514;1253;69180;-70
2023/07/31 09:01:43;;;;;;;6.10;1.50;;;;;;;17.79;82.57;100162.53;105457;1257;74684;-70
2023/07/31 09:04:12;;;;;;;4.90;1.40;;;;;;;17.82;82.58;100168.17;105585;1253;83352;-74
2023/07/31 09:06:39;;;;;;;3.60;1.60;;;;;;;17.83;82.44;100172.00;105352;1256;73712;-67
2023/07/31 09:09:07;;;;;;;2.30;1.00;;;;;;;17.80;82.19;100172.70;105282;1254;68950;-66
2023/07/31 09:11:34;;;;;;;4.30;1.40;;;;;;;17.77;82.17;100174.66;105719;1253;69299;-70
2023/07/31 09:14:08;;;;;;;5.80;1.40;;;;;;;17.72;82.29;100173.99;105568;1257;74317;-70
2023/07/31 09:16:35;;;;;;;3.80;1.10;;;;;;;17.62;82.33;100176.45;105595;1257;83293;-69
2023/07/31 09:19:03;;;;;;;4.00;1.30;;;;;;;17.47;82.48;100174.14;105546;1253;72637;-69
2023/07/31 09:21:30;;;;;;;2.60;1.30;;;;;;;17.37;82.93;100173.02;105549;1253;69190;-71
2023/07/31 09:23:57;;;;;;;7.90;1.40;;;;;;;17.33;83.41;100173.98;105660;1253;69170;-67
2023/07/31 09:26:35;;;;;;;5.40;1.10;;;;;;;17.26;83.93;100172.41;105536;1253;72727;-70
2023/07/31 09:29:07;;;;;;;4.30;1.50;;;;;;;17.15;84.48;100171.19;105655;1254;82410;-73
2023/07/31 09:31:41;;;;;;;4.10;1.30;;;;;;;17.08;85.02;100174.16;105605;1254;73833;-70
2023/07/31 09:34:11;;;;;;;4.10;1.40;;;;;;;16.96;85.26;100173.20;105593;1257;69180;-67
2023/07/31 09:36:50;;;;;;;4.20;1.40;;;;;;;16.89;85.81;100174.36;105665;1253;69074;-66
2023/07/31 09:39:17;;;;;;;3.80;1.30;;;;;;;16.85;86.34;100173.03;105817;1253;74997;-65
2023/07/31 09:41:54;;;;;;;4.10;1.70;;;;;;;16.80;86.81;100172.65;105561;1253;83527;-66
2023/07/31 09:44:21;;;;;;;5.40;1.70;;;;;;;16.73;86.98;100170.98;105613;1256;73624;-66
2023/07/31 09:46:48;;;;;;;3.60;1.50;;;;;;;16.67;87.50;100172.40;105830;1257;69141;-67
2023/07/31 09:49:15;;;;;;;4.00;1.30;;;;;;;16.65;88.16;100167.11;105627;1256;69180;-67
2023/07/31 09:51:42;;;;;;;4.40;1.50;;;;;;;16.63;88.56;100165.64;105556;1256;73772;-67
2023/07/31 09:54:14;;;;;;;4.00;1.40;;;;;;;16.62;89.04;100163.40;105607;1257;83973;-67
2023/07/31 09:56:48;;;;;;;3.70;1.60;;;;;;;16.62;89.39;100166.09;105471;1253;73561;-68
2023/07/31 09:59:16;;;;;;;3.50;1.60;;;;;;;16.64;89.90;100162.05;105688;1252;69059;-67
2023/07/31 10:01:46;;;;;;;2.70;1.40;;;;;;;16.68;90.42;100157.51;105537;1254;69160;-67
2023/07/31 10:04:14;;;;;;;4.90;1.60;;;;;;;16.80;90.65;100154.00;105537;1253;76043;-70
2023/07/31 10:06:42;;;;;;;2.40;1.70;;;;;;;16.92;91.09;100153.89;105688;1257;83488;-62
2023/07/31 10:09:12;;;;;;;5.30;1.90;;;;;;;17.03;90.92;100152.05;105570;1253;72520;-63
2023/07/31 10:11:43;;;;;;;3.90;1.80;;;;;;;17.17;91.43;100153.92;105918;1253;69136;-63
2023/07/31 10:14:11;;;;;;;5.00;1.90;;;;;;;17.31;91.12;100152.45;105623;1257;69201;-63
2023/07/31 10:16:39;;;;;;;4.30;1.70;;;;;;;17.39;90.95;100145.20;105577;1253;74925;-62
2023/07/31 10:19:08;;;;;;;5.10;1.70;;;;;;;17.49;90.69;100144.69;105591;1257;83335;-63
2023/07/31 10:21:37;;;;;;;3.30;1.50;;;;;;;17.63;90.87;100141.05;105517;1253;73591;-62
2023/07/31 10:24:05;;;;;;;2.20;1.40;;;;;;;17.78;90.79;100138.05;105506;1256;69130;-62
2023/07/31 10:26:35;;;;;;;2.80;1.50;;;;;;;17.92;90.71;100135.29;105647;1252;69167;-62
2023/07/31 10:29:03;;;;;;;3.60;1.40;;;;;;;18.02;90.40;100130.70;105545;1253;73798;-63
2023/07/31 10:31:31;;;;;;;3.10;1.50;;;;;;;18.11;90.25;100127.08;105736;1252;83404;-62
2023/07/31 10:34:02;;;;;;;2.40;1.30;;;;;;;18.22;90.01;100120.39;105616;1253;73824;-62
2023/07/31 10:36:29;;;;;;;3.30;1.40;;;;;;;18.33;89.58;100120.99;105533;1253;69092;-62
2023/07/31 10:38:56;;;;;;;2.90;1.70;;;;;;;18.44;89.21;100120.14;105541;1257;69189;-62
2023/07/31 10:41:33;;;;;;;3.00;1.80;;;;;;;18.58;88.93;100112.60;105530;1253;74792;-62
2023/07/31 10:44:01;;;;;;;4.00;1.80;;;;;;;18.87;89.27;100110.75;105689;1257;83436;-60
2023/07/31 10:46:29;;;;;;;2.90;1.80;;;;;;;19.10;88.71;100110.65;105616;1257;73872;-62
2023/07/31 10:49:01;;;;;;;2.80;1.70;;;;;;;19.28;88.14;100102.35;105708;1252;69181;-60
2023/07/31 10:51:35;;;;;;;3.60;1.70;;;;;;;19.55;88.15;100102.10;105649;1252;69183;-62
2023/07/31 10:54:17;;;;;;;4.20;2.20;;;;;;;19.76;87.37;100092.83;105714;1253;74717;-63
2023/07/31 10:56:46;;;;;;;3.70;2.00;;;;;;;19.86;86.04;100093.14;105631;1257;82462;-66
2023/07/31 10:59:13;;;;;;;3.10;1.80;;;;;;;19.91;85.47;100088.98;105634;1253;72193;-65
2023/07/31 11:01:56;;;;;;;3.50;1.90;;;;;;;19.97;85.02;100086.56;105979;1257;69189;-65
2023/07/31 11:04:25;;;;;;;3.90;1.60;;;;;;;20.10;84.96;100083.91;105674;1252;69143;-64
2023/07/31 11:06:59;;;;;;;3.20;1.80;;;;;;;20.18;84.34;100083.42;105717;1253;75285;-66
2023/07/31 11:09:30;;;;;;;4.20;1.80;;;;;;;20.20;83.66;100077.73;105581;1257;84346;-65
2023/07/31 11:11:58;;;;;;;4.60;2.00;;;;;;;20.23;83.27;100078.00;105604;1253;72502;-62
2023/07/31 11:14:25;;;;;;;3.70;2.10;;;;;;;20.35;82.89;100073.68;105628;1257;69303;-62